Abraham Baldwin College, Georgia
Current Conditions -  °F | °C
As of 8:10 PM on Friday 24 Oct 2014 (Local Time) from KTMA Reporting Station
Clear Clear  
Wind Chill: 57°   Ceiling: Unl
Heat Index: 57°   Visibility: 10mi
Dew Point: 47°   Wind: 0mph
Humidity: 68%   Direction: NA
Pressure: 29.99"   Gusts: NA
Location:  31.4406°N, 83.464°W
Report Text: KTMA 250010Z AUTO 00000KT 10SM CLR 14/08 A2999 RMK AO2 T01410082
Loading
Personal Weather Stations






























Interactive Weather Map
Tropical Storm Tracking
New forecast layout! Learn more

10-Day Weather Forecast

Advertisements
Track Severe Weather on mobile